Terminal Aerodrome Forecast
Issued by NWS Central Illinois

Home | Current Version | Previous Version | Text Only | Print | Product List | Glossary On
Versions: 1 2 3 4 5 6 7 8 9 10 11 12 13 14 15 16 17 18 19 20 21 22 23 24 25 26 27
238
FTUS43 KILX 231740 AAA
TAFPIA
TAF AMD
KPIA 231740Z 2318/2418 17006KT P6SM SCT030 BKN250
     FM240200 16005KT P6SM VCSH SCT035 BKN200
     FM240800 18006KT 5SM BR FEW040 BKN250
     FM241400 20009KT P6SM SCT030 BKN200=

USA.gov is the U.S. government's official web portal to all federal, state and local government web resources and services.